Terminal Aerodrome Forecast
Issued by NWS

Home | Current Version | Previous Version | Text Only | Print | Product List | Glossary On
Versions: 1 2 3 4 5 6 7 8 9 10 11 12
000
FTUS43 KMPX 281138
TAFAXN
TAF
KAXN 281138Z 2812/2912 28012KT P6SM SCT070
     FM281600 30017G27KT P6SM BKN050
      TEMPO 2820/2824 -SHRA
     FM290100 30009KT P6SM BKN040
     FM290700 30012G18KT P6SM OVC018=

USA.gov is the U.S. government's official web portal to all federal, state and local government web resources and services.